createdAt,value
2018-04-27T00:00:44.111Z,8.1
2018-04-27T00:01:43.556Z,8.1
2018-04-27T00:02:42.663Z,8.1
2018-04-27T00:03:41.587Z,8
2018-04-27T00:04:41.022Z,8
2018-04-27T00:05:11.332Z,8
2018-04-27T00:05:41.444Z,8
2018-04-27T00:06:12.166Z,8
2018-04-27T00:07:37.953Z,7.9
2018-04-27T00:08:37.063Z,7.9
2018-04-27T00:09:36.378Z,7.9
2018-04-27T00:10:35.807Z,7.9
2018-04-27T00:11:34.627Z,7.9
2018-04-27T00:12:34.060Z,7.9
2018-04-27T00:13:32.876Z,7.9
2018-04-27T00:14:32.212Z,7.8
2018-04-27T00:15:31.035Z,7.8
2018-04-27T00:16:30.040Z,7.8
2018-04-27T00:17:29.358Z,7.8
2018-04-27T00:18:28.573Z,7.7
2018-04-27T00:19:27.893Z,7.7
2018-04-27T00:20:26.727Z,7.7
2018-04-27T00:21:25.947Z,7.7
2018-04-27T00:22:25.170Z,7.7
2018-04-27T00:23:24.388Z,7.7
2018-04-27T00:24:23.614Z,7.6
2018-04-27T00:25:22.446Z,7.6
2018-04-27T00:26:21.764Z,7.6
2018-04-27T00:27:20.585Z,7.6
2018-04-27T00:28:19.905Z,7.6
2018-04-27T00:29:19.125Z,7.6
2018-04-27T00:30:17.950Z,7.5
2018-04-27T00:31:17.164Z,7.6
2018-04-27T00:32:16.483Z,7.6
2018-04-27T00:33:15.193Z,7.5
2018-04-27T00:34:14.689Z,7.5
2018-04-27T00:35:14.014Z,7.5
2018-04-27T00:36:12.627Z,7.5
2018-04-27T00:37:11.950Z,7.5
2018-04-27T00:39:09.943Z,7.5
2018-04-27T00:40:09.272Z,7.5
2018-04-27T00:41:08.486Z,7.5
2018-04-27T00:42:07.703Z,7.5
2018-04-27T00:43:06.809Z,7.5
2018-04-27T00:44:05.811Z,7.5
2018-04-27T00:45:05.242Z,7.5
2018-04-27T00:46:03.948Z,7.5
2018-04-27T00:46:34.647Z,7.5
2018-04-27T00:47:05.280Z,7.5
2018-04-27T00:47:35.811Z,7.5
2018-04-27T00:49:01.604Z,7.4
2018-04-27T00:50:00.317Z,7.5
2018-04-27T00:50:59.639Z,7.4
2018-04-27T00:51:58.647Z,7.4
2018-04-27T00:52:58.081Z,7.4
2018-04-27T00:53:56.900Z,7.4
2018-04-27T00:54:56.219Z,7.3
2018-04-27T00:55:55.557Z,7.3
2018-04-27T00:56:54.278Z,7.3
2018-04-27T00:57:53.500Z,7.3
2018-04-27T00:58:52.931Z,7.3
2018-04-27T00:59:51.753Z,7.3
2018-04-27T01:00:51.186Z,7.3
2018-04-27T01:01:50.012Z,7.2
2018-04-27T01:02:49.441Z,7.2
2018-04-27T01:03:48.264Z,7.2
2018-04-27T01:04:47.591Z,7.2
2018-04-27T01:05:46.914Z,7.2
2018-04-27T01:06:45.626Z,7.2
2018-04-27T01:07:44.725Z,7.2
2018-04-27T01:08:43.937Z,7.2
2018-04-27T01:09:43.049Z,7.2
2018-04-27T01:10:42.384Z,7.2
2018-04-27T01:11:41.208Z,7.2
2018-04-27T01:12:40.317Z,7.2
2018-04-27T01:13:39.654Z,7.1
2018-04-27T01:14:38.583Z,7.1
2018-04-27T01:15:38.011Z,7.1
2018-04-27T01:16:36.722Z,7.1
2018-04-27T01:17:36.041Z,7.1
2018-04-27T01:18:34.958Z,7.1
2018-04-27T01:19:34.192Z,7.1
2018-04-27T01:20:33.511Z,7.1
2018-04-27T01:21:32.336Z,7.1
2018-04-27T01:22:31.667Z,7.1
2018-04-27T01:23:30.489Z,7.1
2018-04-27T01:24:29.710Z,7
2018-04-27T01:25:29.146Z,7
2018-04-27T01:26:27.829Z,7.1
2018-04-27T01:27:27.227Z,7
2018-04-27T01:28:25.945Z,7
2018-04-27T01:29:25.051Z,7
2018-04-27T01:30:24.490Z,7
2018-04-27T01:31:23.595Z,7
2018-04-27T01:32:22.913Z,7
2018-04-27T01:33:21.619Z,7
2018-04-27T01:34:20.940Z,7
2018-04-27T01:35:20.373Z,7.1
2018-04-27T01:36:19.094Z,7.1
2018-04-27T01:37:18.213Z,7.1
2018-04-27T01:38:17.423Z,7.1
2018-04-27T01:39:16.743Z,7.1
2018-04-27T01:40:15.565Z,7.1
2018-04-27T01:43:13.054Z,7.1
2018-04-27T01:45:11.040Z,7.1
2018-04-27T01:46:10.260Z,7.1
2018-04-27T01:47:09.375Z,7.1
2018-04-27T01:48:08.706Z,7.1
2018-04-27T01:49:07.533Z,7.2
2018-04-27T01:50:06.755Z,7.2
2018-04-27T01:51:06.002Z,7.2
2018-04-27T01:52:04.717Z,7.2
2018-04-27T01:53:04.140Z,7.2
2018-04-27T01:54:02.957Z,7.2
2018-04-27T01:55:02.189Z,7.2
2018-04-27T01:56:01.512Z,7.2
2018-04-27T01:57:00.223Z,7.2
2018-04-27T01:57:59.543Z,7.2
2018-04-27T01:58:58.864Z,7.2
2018-04-27T01:59:57.674Z,7.3
2018-04-27T02:00:57.076Z,7.3
2018-04-27T02:01:55.977Z,7.3
2018-04-27T02:02:55.405Z,7.3
2018-04-27T02:03:54.527Z,7.3
2018-04-27T02:04:53.352Z,7.3
2018-04-27T02:06:51.362Z,7.3
2018-04-27T02:07:50.678Z,7.3
2018-04-27T02:08:49.901Z,7.3
2018-04-27T02:09:48.730Z,7.3
2018-04-27T02:10:48.058Z,7.3
2018-04-27T02:11:47.280Z,7.3
2018-04-27T02:12:45.982Z,7.3
2018-04-27T02:13:45.304Z,7.3
2018-04-27T02:14:44.412Z,7.3
2018-04-27T02:15:43.850Z,7.3
2018-04-27T02:16:42.669Z,7.3
2018-04-27T02:17:41.998Z,7.3
2018-04-27T02:18:40.925Z,7.3
2018-04-27T02:19:40.245Z,7.4
2018-04-27T02:20:38.961Z,7.4
2018-04-27T02:21:09.489Z,7.4
2018-04-27T02:21:40.234Z,7.4
2018-04-27T02:22:10.356Z,7.4
2018-04-27T02:23:36.232Z,7.4
2018-04-27T02:24:35.223Z,7.4
2018-04-27T02:25:34.431Z,7.4
2018-04-27T02:26:33.738Z,7.4
2018-04-27T02:27:32.958Z,7.4
2018-04-27T02:28:32.286Z,7.4
2018-04-27T02:29:31.104Z,7.4
2018-04-27T02:30:30.421Z,7.4
2018-04-27T02:31:29.032Z,7.4
2018-04-27T02:32:28.454Z,7.4
2018-04-27T02:33:27.769Z,7.4
2018-04-27T02:34:26.868Z,7.4
2018-04-27T02:35:25.578Z,7.4
2018-04-27T02:36:24.903Z,7.4
2018-04-27T02:37:24.108Z,7.4
2018-04-27T02:38:23.422Z,7.4
2018-04-27T02:39:22.134Z,7.4
2018-04-27T02:40:21.574Z,7.4
2018-04-27T02:41:20.508Z,7.4
2018-04-27T02:42:19.726Z,7.4
2018-04-27T02:43:18.331Z,7.4
2018-04-27T02:45:17.168Z,7.3
2018-04-27T02:46:15.991Z,7.3
2018-04-27T02:47:15.431Z,7.4
2018-04-27T02:48:14.360Z,7.3
2018-04-27T02:50:12.558Z,7.3
2018-04-27T02:51:11.883Z,7.3
2018-04-27T02:53:10.086Z,7.3
2018-04-27T02:54:09.031Z,7.2
2018-04-27T02:55:08.358Z,7.2
2018-04-27T02:56:07.279Z,7.2
2018-04-27T02:57:06.602Z,7.2
2018-04-27T02:58:05.334Z,7.2
2018-04-27T02:59:04.548Z,7.1
2018-04-27T03:00:03.649Z,7.1
2018-04-27T03:01:02.761Z,7.1
2018-04-27T03:02:01.983Z,7.1
2018-04-27T03:02:32.625Z,7.1
2018-04-27T03:04:00.125Z,7
2018-04-27T03:04:59.456Z,7
2018-04-27T03:05:58.175Z,7
2018-04-27T03:06:57.504Z,7
2018-04-27T03:07:56.961Z,7
2018-04-27T03:08:55.880Z,7
2018-04-27T03:09:54.709Z,6.9
2018-04-27T03:10:54.031Z,6.9
2018-04-27T03:11:52.927Z,6.9
2018-04-27T03:12:52.245Z,6.9
2018-04-27T03:13:22.772Z,6.9
2018-04-27T03:13:53.510Z,6.9
2018-04-27T03:14:23.629Z,6.9
2018-04-27T03:15:49.409Z,6.9
2018-04-27T03:16:48.400Z,6.9
2018-04-27T03:18:46.700Z,6.8
2018-04-27T03:19:45.918Z,6.8
2018-04-27T03:20:45.344Z,6.8
2018-04-27T03:21:44.271Z,6.8
2018-04-27T03:22:43.081Z,6.8
2018-04-27T03:24:41.179Z,6.7
2018-04-27T03:25:40.282Z,6.7
2018-04-27T03:26:39.500Z,6.7
2018-04-27T03:27:38.821Z,6.7
2018-04-27T03:28:37.743Z,6.7
2018-04-27T03:29:36.841Z,6.7
2018-04-27T03:30:36.171Z,6.7
2018-04-27T03:31:35.386Z,6.6
2018-04-27T03:32:34.308Z,6.6
2018-04-27T03:33:33.228Z,6.6
2018-04-27T03:34:32.543Z,6.6
2018-04-27T03:35:31.459Z,6.6
2018-04-27T03:36:30.773Z,6.6
2018-04-27T03:37:29.763Z,6.6
2018-04-27T03:38:29.077Z,6.6
2018-04-27T03:39:27.674Z,6.6
2018-04-27T03:40:26.992Z,6.5
2018-04-27T03:41:26.205Z,6.5
2018-04-27T03:42:25.514Z,6.5
2018-04-27T03:43:24.432Z,6.5
2018-04-27T03:44:23.745Z,6.5
2018-04-27T03:45:22.828Z,6.5
2018-04-27T03:46:21.962Z,6.5
2018-04-27T03:47:20.666Z,6.5
2018-04-27T03:48:19.887Z,6.5
2018-04-27T03:49:19.311Z,6.5
2018-04-27T03:50:18.111Z,6.5
2018-04-27T03:51:17.326Z,6.4
2018-04-27T03:52:16.537Z,6.4
2018-04-27T03:53:15.349Z,6.4
2018-04-27T03:54:14.767Z,6.4
2018-04-27T03:55:13.569Z,6.4
2018-04-27T03:56:12.777Z,6.4
2018-04-27T03:57:11.591Z,6.4
2018-04-27T03:58:11.014Z,6.4
2018-04-27T03:59:09.939Z,6.4
2018-04-27T04:00:09.267Z,6.4
2018-04-27T04:02:07.357Z,6.4
2018-04-27T04:03:06.461Z,6.3
2018-04-27T04:04:05.887Z,6.4
2018-04-27T04:05:04.486Z,6.3
2018-04-27T04:06:03.593Z,6.3
2018-04-27T04:07:02.906Z,6.3
2018-04-27T04:08:01.917Z,6.3
2018-04-27T04:09:01.130Z,6.3
2018-04-27T04:10:00.055Z,6.3
2018-04-27T04:10:59.266Z,6.3
2018-04-27T04:11:58.474Z,6.3
2018-04-27T04:12:57.794Z,6.3
2018-04-27T04:13:56.652Z,6.3
2018-04-27T04:14:55.870Z,6.3
2018-04-27T04:15:54.786Z,6.3
2018-04-27T04:16:53.716Z,6.3
2018-04-27T04:17:53.028Z,6.3
2018-04-27T04:18:52.127Z,6.3
2018-04-27T04:19:51.336Z,6.3
2018-04-27T04:20:50.149Z,6.3
2018-04-27T04:21:49.568Z,6.3
2018-04-27T04:22:48.288Z,6.3
2018-04-27T04:23:47.280Z,6.3
2018-04-27T04:24:46.594Z,6.4
2018-04-27T04:25:45.692Z,6.4
2018-04-27T04:26:45.017Z,6.4
2018-04-27T04:27:43.719Z,6.4
2018-04-27T04:28:43.038Z,6.4
2018-04-27T04:29:42.270Z,6.4
2018-04-27T04:30:41.187Z,6.4
2018-04-27T04:31:40.504Z,6.4
2018-04-27T04:32:39.317Z,6.4
2018-04-27T04:33:38.639Z,6.4
2018-04-27T04:34:37.233Z,6.4
2018-04-27T04:35:36.333Z,6.4
2018-04-27T04:36:35.650Z,6.4
2018-04-27T04:37:35.078Z,6.4
2018-04-27T04:38:33.783Z,6.4
2018-04-27T04:39:33.070Z,6.4
2018-04-27T04:40:32.500Z,6.4
2018-04-27T04:41:31.319Z,6.4
2018-04-27T04:42:30.316Z,6.4
2018-04-27T04:44:28.615Z,6.5
2018-04-27T04:45:27.931Z,6.4
2018-04-27T04:46:26.748Z,6.5
2018-04-27T04:47:26.063Z,6.5
2018-04-27T04:48:24.878Z,6.4
2018-04-27T04:49:24.305Z,6.5
2018-04-27T04:50:23.122Z,6.5
2018-04-27T04:51:22.329Z,6.5
2018-04-27T04:52:21.513Z,6.5
2018-04-27T04:53:20.220Z,6.5
2018-04-27T04:54:19.436Z,6.5
2018-04-27T04:55:18.871Z,6.5
2018-04-27T04:56:17.476Z,6.5
2018-04-27T04:57:16.796Z,6.5
2018-04-27T04:59:15.006Z,6.5
2018-04-27T05:00:14.326Z,6.5
2018-04-27T05:01:13.035Z,6.5
2018-04-27T05:02:12.453Z,6.6
2018-04-27T05:03:11.269Z,6.5
2018-04-27T05:04:10.690Z,6.5
2018-04-27T05:05:09.607Z,6.6
2018-04-27T05:06:08.926Z,6.6
2018-04-27T05:07:07.745Z,6.6
2018-04-27T05:08:07.063Z,6.6
2018-04-27T05:09:05.760Z,6.6
2018-04-27T05:10:05.082Z,6.6
2018-04-27T05:11:04.392Z,6.6
2018-04-27T05:12:02.986Z,6.6
2018-04-27T05:13:02.301Z,6.6
2018-04-27T05:14:01.410Z,6.6
2018-04-27T05:15:00.624Z,6.6
2018-04-27T05:15:59.832Z,6.6
2018-04-27T05:16:58.640Z,6.7
2018-04-27T05:17:57.959Z,6.7
2018-04-27T05:18:56.668Z,6.7
2018-04-27T05:19:55.893Z,6.7
2018-04-27T05:20:55.205Z,6.7
2018-04-27T05:21:54.623Z,6.7
2018-04-27T05:22:53.218Z,6.7
2018-04-27T05:23:52.564Z,6.7
2018-04-27T05:24:51.490Z,6.7
2018-04-27T05:25:21.613Z,6.7
2018-04-27T05:25:52.246Z,6.8
2018-04-27T05:26:49.449Z,6.8
2018-04-27T05:27:48.552Z,6.8
2018-04-27T05:28:47.645Z,6.8
2018-04-27T05:29:47.400Z,6.8
2018-04-27T05:30:46.418Z,6.8
2018-04-27T05:31:45.335Z,6.8
2018-04-27T05:32:44.542Z,6.8
2018-04-27T05:33:43.139Z,6.8
2018-04-27T05:34:42.582Z,6.8
2018-04-27T05:36:40.785Z,6.9
2018-04-27T05:37:40.105Z,6.9
2018-04-27T05:38:38.811Z,6.9
2018-04-27T05:39:38.226Z,6.9
2018-04-27T05:40:36.939Z,6.9
2018-04-27T05:41:36.155Z,7
2018-04-27T05:42:35.579Z,7
2018-04-27T05:43:34.284Z,7
2018-04-27T05:44:33.584Z,7
2018-04-27T05:45:32.793Z,7
2018-04-27T05:46:31.712Z,7
2018-04-27T05:47:30.827Z,7.1
2018-04-27T05:48:29.923Z,7.1
2018-04-27T05:50:28.127Z,7.1
2018-04-27T05:51:27.444Z,7.1
2018-04-27T05:52:26.155Z,7.2
2018-04-27T05:53:25.492Z,7.2
2018-04-27T05:54:24.700Z,7.2
2018-04-27T05:55:23.798Z,7.2
2018-04-27T05:56:23.114Z,7.2
2018-04-27T05:57:21.731Z,7.3
2018-04-27T05:58:20.939Z,7.3
2018-04-27T05:59:20.251Z,7.3
2018-04-27T06:00:18.952Z,7.3
2018-04-27T06:01:18.381Z,7.4
2018-04-27T06:02:17.311Z,7.4
2018-04-27T06:03:16.522Z,7.4
2018-04-27T06:04:15.843Z,7.4
2018-04-27T06:05:14.437Z,7.5
2018-04-27T06:05:44.990Z,7.5
2018-04-27T06:06:15.619Z,7.5
2018-04-27T06:06:46.143Z,7.5
2018-04-27T06:07:16.558Z,7.5
2018-04-27T06:07:47.187Z,7.5
2018-04-27T06:09:10.941Z,7.6
2018-04-27T06:10:10.625Z,7.6
2018-04-27T06:12:08.420Z,7.6
2018-04-27T06:13:07.521Z,7.7
2018-04-27T06:14:06.835Z,7.7
2018-04-27T06:15:05.544Z,7.7
2018-04-27T06:16:04.731Z,7.7
2018-04-27T06:17:04.053Z,7.8
2018-04-27T06:18:02.647Z,7.8
2018-04-27T06:18:33.170Z,7.8
2018-04-27T06:19:03.804Z,7.8
2018-04-27T06:20:01.130Z,7.8
2018-04-27T06:21:00.479Z,7.8
2018-04-27T06:21:59.285Z,7.9
2018-04-27T06:22:58.796Z,7.9
2018-04-27T06:23:57.612Z,7.9
2018-04-27T06:24:56.926Z,8
2018-04-27T06:25:55.741Z,8
2018-04-27T06:26:54.953Z,8
2018-04-27T06:27:54.268Z,8.1
2018-04-27T06:28:53.586Z,8.1
2018-04-27T06:29:52.405Z,8.1
2018-04-27T06:30:51.723Z,8.2
2018-04-27T06:31:51.243Z,8.2
2018-04-27T06:32:49.536Z,8.2
2018-04-27T06:33:48.972Z,8.3
2018-04-27T06:34:47.792Z,8.3
2018-04-27T06:35:47.235Z,8.3
2018-04-27T06:36:46.059Z,8.3
2018-04-27T06:37:45.274Z,8.4
2018-04-27T06:38:44.377Z,8.4
2018-04-27T06:39:43.807Z,8.4
2018-04-27T06:40:42.411Z,8.4
2018-04-27T06:41:41.400Z,8.5
2018-04-27T06:42:40.725Z,8.5
2018-04-27T06:43:40.036Z,8.5
2018-04-27T06:44:38.951Z,8.6
2018-04-27T06:45:38.157Z,8.6
2018-04-27T06:46:37.485Z,8.7
2018-04-27T06:47:07.720Z,8.7
2018-04-27T06:47:37.636Z,8.7
2018-04-27T06:48:08.261Z,8.7
2018-04-27T06:48:38.176Z,8.8
2018-04-27T06:49:34.148Z,8.8
2018-04-27T06:50:34.069Z,8.9
2018-04-27T06:51:33.241Z,8.9
2018-04-27T06:52:31.763Z,9
2018-04-27T06:53:31.079Z,9.1
2018-04-27T06:54:30.471Z,9.1
2018-04-27T06:55:29.397Z,9.2
2018-04-27T06:56:28.716Z,9.2
2018-04-27T06:57:27.536Z,9.2
2018-04-27T06:58:26.964Z,9.3
2018-04-27T06:59:25.884Z,9.4
2018-04-27T07:00:24.727Z,9.4
2018-04-27T07:01:23.838Z,9.5
2018-04-27T07:02:23.042Z,9.5
2018-04-27T07:03:22.039Z,9.6
2018-04-27T07:04:21.351Z,9.6
2018-04-27T07:05:21.320Z,9.7
2018-04-27T07:07:19.141Z,9.8
2018-04-27T07:08:18.063Z,9.8
2018-04-27T07:09:17.380Z,9.8
2018-04-27T07:10:16.195Z,9.9
2018-04-27T07:11:15.417Z,9.9
2018-04-27T07:12:14.740Z,10
2018-04-27T07:13:13.665Z,10
2018-04-27T07:14:12.983Z,10
2018-04-27T07:15:11.796Z,10.1
2018-04-27T07:16:11.129Z,10.2
2018-04-27T07:18:09.439Z,10.3
2018-04-27T07:19:08.254Z,10.3
2018-04-27T07:20:07.364Z,10.3
2018-04-27T07:21:06.357Z,10.4
2018-04-27T07:22:05.575Z,10.4
2018-04-27T07:23:04.896Z,10.4
2018-04-27T07:24:04.111Z,10.4
2018-04-27T07:25:03.212Z,10.5
2018-04-27T07:26:02.435Z,10.5
2018-04-27T07:27:01.757Z,10.5
2018-04-27T07:28:00.579Z,10.6
2018-04-27T07:28:59.570Z,10.6
2018-04-27T07:29:58.782Z,10.6
2018-04-27T07:30:58.097Z,10.6
2018-04-27T07:31:57.416Z,10.7
2018-04-27T07:32:27.937Z,10.7
2018-04-27T07:32:58.673Z,10.7
2018-04-27T07:33:55.880Z,10.7
2018-04-27T07:34:54.597Z,10.7
2018-04-27T07:35:53.930Z,10.7
2018-04-27T07:36:53.142Z,10.7
2018-04-27T07:37:52.568Z,10.8
2018-04-27T07:38:51.487Z,10.8
2018-04-27T07:39:50.476Z,10.8
2018-04-27T07:40:49.796Z,10.8
2018-04-27T07:41:48.601Z,10.9
2018-04-27T07:42:19.230Z,10.9
2018-04-27T07:42:49.979Z,10.9
2018-04-27T07:43:20.499Z,10.9
2018-04-27T07:44:46.378Z,10.9
2018-04-27T07:46:44.470Z,11
2018-04-27T07:47:43.784Z,11
2018-04-27T07:48:42.996Z,11
2018-04-27T07:49:42.000Z,11
2018-04-27T07:50:41.426Z,11
2018-04-27T07:51:40.022Z,11
2018-04-27T07:52:39.336Z,11.1
2018-04-27T07:53:09.859Z,11.1
2018-04-27T07:54:37.748Z,11.1
2018-04-27T07:55:37.069Z,11.1
2018-04-27T07:56:36.283Z,11.1
2018-04-27T07:57:35.091Z,11.2
2018-04-27T07:58:34.412Z,11.2
2018-04-27T07:59:33.524Z,11.2
2018-04-27T08:00:32.728Z,11.2
2018-04-27T08:01:31.938Z,11.2
2018-04-27T08:02:32.111Z,11.2
2018-04-27T08:03:30.316Z,11.3
2018-04-27T08:04:29.633Z,11.3
2018-04-27T08:05:28.442Z,11.3
2018-04-27T08:06:27.755Z,11.3
2018-04-27T08:07:27.179Z,11.3
2018-04-27T08:08:25.882Z,11.4
2018-04-27T08:09:25.198Z,11.4
2018-04-27T08:10:24.620Z,11.4
2018-04-27T08:11:23.804Z,11.4
2018-04-27T08:12:22.814Z,11.4
2018-04-27T08:13:22.055Z,11.4
2018-04-27T08:14:21.472Z,11.4
2018-04-27T08:15:20.066Z,11.4
2018-04-27T08:16:19.435Z,11.4
2018-04-27T08:17:18.655Z,11.4
2018-04-27T08:18:17.864Z,11.4
2018-04-27T08:19:17.187Z,11.4
2018-04-27T08:20:15.786Z,11.4
2018-04-27T08:21:15.398Z,11.4
2018-04-27T08:21:46.022Z,11.4
2018-04-27T08:22:16.538Z,11.4
2018-04-27T08:22:47.168Z,11.4
2018-04-27T08:23:17.799Z,11.4
2018-04-27T08:23:48.433Z,11.4
2018-04-27T08:24:19.069Z,11.4
2018-04-27T08:24:49.585Z,11.4
2018-04-27T08:26:10.973Z,11.4
2018-04-27T08:27:10.395Z,11.5
2018-04-27T08:28:09.778Z,11.5
2018-04-27T08:29:08.481Z,11.6
2018-04-27T08:30:07.835Z,11.6
2018-04-27T08:31:07.153Z,11.6
2018-04-27T08:32:05.964Z,11.6
2018-04-27T08:33:05.170Z,11.7
2018-04-27T08:34:04.589Z,11.7
2018-04-27T08:34:34.817Z,11.7
2018-04-27T08:35:04.941Z,11.7
2018-04-27T08:35:35.463Z,11.7
2018-04-27T08:37:01.960Z,11.8
2018-04-27T08:38:01.070Z,11.9
2018-04-27T08:39:00.380Z,11.9
2018-04-27T08:39:59.493Z,11.9
2018-04-27T08:41:58.088Z,12
2018-04-27T08:42:56.900Z,12
2018-04-27T08:43:56.463Z,12
2018-04-27T08:44:55.288Z,12
2018-04-27T08:46:54.002Z,12.1
2018-04-27T08:47:52.818Z,12.2
2018-04-27T08:48:52.136Z,12.2
2018-04-27T08:49:51.464Z,12.2
2018-04-27T08:50:50.770Z,12.3
2018-04-27T08:51:49.367Z,12.4
2018-04-27T08:52:49.007Z,12.4
2018-04-27T08:53:48.220Z,12.4
2018-04-27T08:54:47.434Z,12.5
2018-04-27T08:55:46.644Z,12.5
2018-04-27T08:56:45.355Z,12.5
2018-04-27T08:57:44.569Z,12.5
2018-04-27T08:58:43.997Z,12.6
2018-04-27T08:59:43.307Z,12.6
2018-04-27T09:00:42.409Z,12.6
2018-04-27T09:01:41.725Z,12.6
2018-04-27T09:02:40.747Z,12.7
2018-04-27T09:03:39.788Z,12.7
2018-04-27T09:04:39.108Z,12.7
2018-04-27T09:05:38.436Z,12.7
2018-04-27T09:06:37.643Z,12.8
2018-04-27T09:07:36.489Z,12.8
2018-04-27T09:08:35.590Z,12.8
2018-04-27T09:09:34.980Z,12.8
2018-04-27T09:10:34.294Z,12.8
2018-04-27T09:11:33.496Z,12.8
2018-04-27T09:12:32.923Z,12.8
2018-04-27T09:13:31.520Z,12.8
2018-04-27T09:14:30.953Z,12.9
2018-04-27T09:15:01.082Z,12.9
2018-04-27T09:15:31.601Z,13
2018-04-27T09:16:29.314Z,13
2018-04-27T09:17:28.740Z,13
2018-04-27T09:18:28.060Z,13
2018-04-27T09:19:26.824Z,13
2018-04-27T09:20:26.138Z,13.1
2018-04-27T09:21:25.452Z,13.1
2018-04-27T09:22:24.437Z,13.1
2018-04-27T09:23:23.862Z,13.2
2018-04-27T09:24:23.175Z,13.2
2018-04-27T09:25:21.982Z,13.3
2018-04-27T09:26:21.193Z,13.4
2018-04-27T09:27:20.505Z,13.4
2018-04-27T09:28:19.603Z,13.5
2018-04-27T09:29:18.942Z,13.5
2018-04-27T09:30:18.264Z,13.6
2018-04-27T09:31:17.580Z,13.6
2018-04-27T09:32:16.311Z,13.6
2018-04-27T09:33:15.519Z,13.7
2018-04-27T09:34:14.624Z,13.7
2018-04-27T09:35:14.341Z,13.7
2018-04-27T09:36:13.329Z,13.7
2018-04-27T09:37:12.754Z,13.8
2018-04-27T09:39:10.848Z,13.8
2018-04-27T09:40:09.951Z,13.8
2018-04-27T09:41:09.862Z,13.9
2018-04-27T09:42:08.678Z,14
2018-04-27T09:43:07.888Z,14.1
2018-04-27T09:44:07.208Z,14.2
2018-04-27T09:45:05.802Z,14.2
2018-04-27T09:46:05.630Z,14.2
2018-04-27T09:47:04.338Z,14.3
2018-04-27T09:48:04.249Z,14.4
2018-04-27T09:49:02.741Z,14.4
2018-04-27T09:50:02.128Z,14.4
2018-04-27T09:51:01.451Z,14.4
2018-04-27T09:52:00.771Z,14.4
2018-04-27T09:52:59.873Z,14.4
2018-04-27T09:53:59.203Z,14.4
2018-04-27T09:54:58.517Z,14.4
2018-04-27T09:55:57.221Z,14.4
2018-04-27T09:56:56.534Z,14.5
2018-04-27T09:57:55.850Z,14.5
2018-04-27T09:58:55.156Z,14.5
2018-04-27T09:59:54.478Z,14.4
2018-04-27T10:00:53.687Z,14.4
2018-04-27T10:01:52.895Z,14.4
2018-04-27T10:03:51.202Z,14.4
2018-04-27T10:04:50.311Z,14.4
2018-04-27T10:05:50.264Z,14.4
2018-04-27T10:06:48.967Z,14.4
2018-04-27T10:07:48.395Z,14.4
2018-04-27T10:08:47.319Z,14.4
2018-04-27T10:10:46.018Z,14.4
2018-04-27T10:11:44.717Z,14.4
2018-04-27T10:12:43.931Z,14.4
2018-04-27T10:13:43.259Z,14.4
2018-04-27T10:14:42.771Z,14.5
2018-04-27T10:15:42.196Z,14.5
2018-04-27T10:16:41.022Z,14.5
2018-04-27T10:17:40.443Z,14.5
2018-04-27T10:18:39.757Z,14.6
2018-04-27T10:19:38.970Z,14.7
2018-04-27T10:20:38.079Z,14.8
2018-04-27T10:21:37.305Z,14.8
2018-04-27T10:22:36.745Z,14.8
2018-04-27T10:23:35.548Z,14.8
2018-04-27T10:24:34.750Z,14.9
2018-04-27T10:25:34.251Z,14.8
2018-04-27T10:26:33.423Z,14.8
2018-04-27T10:27:32.841Z,14.8
2018-04-27T10:28:31.760Z,14.8
2018-04-27T10:29:31.178Z,14.8
2018-04-27T10:30:30.505Z,14.9
2018-04-27T10:31:29.319Z,15
2018-04-27T10:32:28.926Z,15.1
2018-04-27T10:33:28.238Z,15.1
2018-04-27T10:34:27.347Z,15.2
2018-04-27T10:35:26.764Z,15.2
2018-04-27T10:36:25.369Z,15.3
2018-04-27T10:37:25.080Z,15.3
2018-04-27T10:38:24.396Z,15.4
2018-04-27T10:39:23.716Z,15.4
2018-04-27T10:40:22.431Z,15.5
2018-04-27T10:41:21.539Z,15.5
2018-04-27T10:42:21.351Z,15.5
2018-04-27T10:43:20.350Z,15.5
2018-04-27T10:44:19.555Z,15.6
2018-04-27T10:45:18.545Z,15.6
2018-04-27T10:46:18.264Z,15.5
2018-04-27T10:47:17.473Z,15.5
2018-04-27T10:48:16.799Z,15.5
2018-04-27T10:49:15.602Z,15.5
2018-04-27T10:50:14.902Z,15.5
2018-04-27T10:51:14.303Z,15.5
2018-04-27T10:52:13.508Z,15.6
2018-04-27T10:53:12.709Z,15.6
2018-04-27T10:54:11.830Z,15.6
2018-04-27T10:55:11.139Z,15.6
2018-04-27T10:56:10.544Z,15.6
2018-04-27T10:57:09.657Z,15.6
2018-04-27T10:58:08.871Z,15.6
2018-04-27T10:59:08.077Z,15.6
2018-04-27T11:00:07.295Z,15.7
2018-04-27T11:01:06.296Z,15.8
2018-04-27T11:02:06.317Z,15.9
2018-04-27T11:03:05.642Z,15.9
2018-04-27T11:05:03.749Z,16
2018-04-27T11:06:02.967Z,16
2018-04-27T11:07:01.964Z,16
2018-04-27T11:09:00.789Z,16.1
2018-04-27T11:10:00.109Z,16.1
2018-04-27T11:10:59.749Z,16.2
2018-04-27T11:11:58.578Z,16.2
2018-04-27T11:12:57.572Z,16.2
2018-04-27T11:13:57.381Z,16.2
2018-04-27T11:14:56.196Z,16.3
2018-04-27T11:15:55.545Z,16.3
2018-04-27T11:16:57.480Z,16.4
2018-04-27T11:17:54.351Z,16.4
2018-04-27T11:19:52.752Z,16.4
2018-04-27T11:20:52.064Z,16.4
2018-04-27T11:21:51.273Z,16.4
2018-04-27T11:22:50.484Z,16.4
2018-04-27T11:23:49.691Z,16.5
2018-04-27T11:24:48.688Z,16.5
2018-04-27T11:25:48.620Z,16.5
2018-04-27T11:26:47.831Z,16.6
2018-04-27T11:27:47.046Z,16.6
2018-04-27T11:28:46.446Z,16.7
2018-04-27T11:29:45.160Z,16.7
2018-04-27T11:30:44.665Z,16.7
2018-04-27T11:31:44.074Z,16.7
2018-04-27T11:32:43.493Z,16.7
2018-04-27T11:34:41.927Z,16.8
2018-04-27T11:35:41.438Z,16.7
2018-04-27T11:36:40.370Z,16.7
2018-04-27T11:37:39.470Z,16.8
2018-04-27T11:38:38.678Z,16.8
2018-04-27T11:39:38.622Z,16.9
2018-04-27T11:40:08.643Z,16.9
2018-04-27T11:41:36.829Z,16.9
2018-04-27T11:42:36.033Z,16.9
2018-04-27T11:43:35.451Z,17
2018-04-27T11:44:34.775Z,17.1
2018-04-27T11:45:34.096Z,17.1
2018-04-27T11:46:33.201Z,17.2
2018-04-27T11:47:32.406Z,17.2
2018-04-27T11:48:31.510Z,17.3
2018-04-27T11:49:31.222Z,17.3
2018-04-27T11:50:30.538Z,17.4
2018-04-27T11:51:01.056Z,17.4
2018-04-27T11:51:31.572Z,17.5
2018-04-27T11:52:02.095Z,17.5
2018-04-27T11:52:32.623Z,17.4
2018-04-27T11:53:03.152Z,17.4
2018-04-27T11:53:33.783Z,17.5
2018-04-27T11:54:27.356Z,17.7
2018-04-27T11:55:27.072Z,17.8
2018-04-27T11:56:26.183Z,17.7
2018-04-27T11:57:25.383Z,17.6
2018-04-27T11:58:24.694Z,17.6
2018-04-27T11:59:24.185Z,17.6
2018-04-27T12:00:23.402Z,17.6
2018-04-27T12:01:22.614Z,17.6
2018-04-27T12:02:22.080Z,17.7
2018-04-27T12:03:21.400Z,17.8
2018-04-27T12:04:20.612Z,17.8
2018-04-27T12:05:19.928Z,17.8
2018-04-27T12:07:18.532Z,17.9
2018-04-27T12:08:17.735Z,17.9
2018-04-27T12:09:17.451Z,17.9
2018-04-27T12:10:16.873Z,17.9
2018-04-27T12:11:16.294Z,18
2018-04-27T12:12:14.890Z,18.1
2018-04-27T12:13:14.825Z,18.2
2018-04-27T12:14:13.928Z,18.2
2018-04-27T12:15:13.022Z,18.1
2018-04-27T12:16:12.336Z,18.3
2018-04-27T12:17:12.165Z,18.5
2018-04-27T12:18:10.983Z,18.6
2018-04-27T12:19:10.408Z,18.7
2018-04-27T12:20:09.725Z,18.8
2018-04-27T12:21:08.718Z,18.9
2018-04-27T12:22:08.428Z,19
2018-04-27T12:23:07.750Z,19
2018-04-27T12:24:07.072Z,18.9
2018-04-27T12:25:06.287Z,19
2018-04-27T12:26:06.005Z,19.2
2018-04-27T12:28:04.601Z,19.1
2018-04-27T12:29:04.067Z,19.2
2018-04-27T12:30:03.501Z,19.4
2018-04-27T12:31:02.797Z,19.3
2018-04-27T12:32:01.530Z,19.4
2018-04-27T12:33:01.033Z,19.4
2018-04-27T12:33:31.678Z,19.4
2018-04-27T12:34:59.358Z,19.2
2018-04-27T12:35:59.285Z,19.2
2018-04-27T12:36:58.704Z,19.1
2018-04-27T12:37:57.915Z,19.1
2018-04-27T12:38:57.713Z,19.1
2018-04-27T12:39:56.608Z,19.2
2018-04-27T12:40:55.927Z,19.1
2018-04-27T12:41:55.558Z,19
2018-04-27T12:42:54.986Z,18.9
2018-04-27T12:43:54.192Z,19
2018-04-27T12:44:53.515Z,19.1
2018-04-27T12:45:52.826Z,19.3
2018-04-27T12:46:52.144Z,19.5
2018-04-27T12:47:51.352Z,19.7
2018-04-27T12:48:50.669Z,19.7
2018-04-27T12:49:50.602Z,19.6
2018-04-27T12:50:49.413Z,19.8
2018-04-27T12:51:48.913Z,19.8
2018-04-27T12:52:48.250Z,19.6
2018-04-27T12:53:47.564Z,19
2018-04-27T12:54:46.896Z,19
2018-04-27T12:55:46.104Z,19.2
2018-04-27T12:56:46.028Z,19.3
2018-04-27T12:57:45.234Z,19.5
2018-04-27T12:58:44.554Z,19.6
2018-04-27T12:59:43.543Z,19.5
2018-04-27T13:00:43.263Z,19.3
2018-04-27T13:01:42.551Z,19.5
2018-04-27T13:02:41.875Z,19.7
2018-04-27T13:03:41.273Z,19.7
2018-04-27T13:04:40.587Z,19.7
2018-04-27T13:05:40.408Z,19.8
2018-04-27T13:06:39.616Z,19.9
2018-04-27T13:07:38.930Z,19.9
2018-04-27T13:08:38.035Z,20.1
2018-04-27T13:09:38.020Z,20.1
2018-04-27T13:10:37.128Z,20
2018-04-27T13:11:36.553Z,20
2018-04-27T13:12:35.643Z,20.2
2018-04-27T13:13:35.567Z,20.4
2018-04-27T13:14:34.664Z,20.4
2018-04-27T13:15:33.980Z,20.4
2018-04-27T13:16:33.289Z,20.5
2018-04-27T13:17:33.108Z,20.5
2018-04-27T13:18:32.216Z,20.6
2018-04-27T13:19:31.426Z,20.6
2018-04-27T13:20:30.652Z,20.7
2018-04-27T13:21:30.584Z,20.9
2018-04-27T13:22:29.783Z,21
2018-04-27T13:23:29.118Z,21.2
2018-04-27T13:24:28.442Z,21.1
2018-04-27T13:25:28.273Z,21.2
2018-04-27T13:26:28.106Z,21.2
2018-04-27T13:27:26.689Z,21.1
2018-04-27T13:28:26.008Z,20.9
2018-04-27T13:29:25.613Z,21.1
2018-04-27T13:30:24.821Z,21.1
2018-04-27T13:30:55.235Z,21.1
2018-04-27T13:31:25.753Z,21.2
2018-04-27T13:31:56.280Z,21.2
2018-04-27T13:32:26.690Z,21.4
2018-04-27T13:33:23.094Z,21.4
2018-04-27T13:34:22.578Z,21.5